createdAt,value
2022-12-24T00:02:34.681Z,14.95
2022-12-24T00:05:39.733Z,20.30
2022-12-24T00:08:44.246Z,22.35
2022-12-24T00:11:49.108Z,39.93
2022-12-24T00:14:53.626Z,27.23
2022-12-24T00:17:58.296Z,26.25
2022-12-24T00:21:04.825Z,21.35
2022-12-24T00:24:09.330Z,15.75
2022-12-24T00:27:13.854Z,23.70
2022-12-24T00:30:18.543Z,7.57
2022-12-24T00:33:24.803Z,6.43
2022-12-24T00:36:29.723Z,4.95
2022-12-24T00:39:34.738Z,3.72
2022-12-24T00:42:39.577Z,5.22
2022-12-24T00:45:44.409Z,11.03
2022-12-24T00:48:49.334Z,5.97
2022-12-24T00:51:53.993Z,4.43
2022-12-24T00:54:58.528Z,4.50
2022-12-24T00:58:02.821Z,10.68
2022-12-24T01:01:07.389Z,8.60
2022-12-24T01:04:30.400Z,7.47
2022-12-24T01:07:35.000Z,4.00
2022-12-24T01:10:39.619Z,5.30
2022-12-24T01:13:43.972Z,15.40
2022-12-24T01:16:48.435Z,15.25
2022-12-24T01:19:52.896Z,14.35
2022-12-24T01:22:57.551Z,13.32
2022-12-24T01:26:03.586Z,7.25
2022-12-24T01:29:08.290Z,8.68
2022-12-24T01:32:12.982Z,11.10
2022-12-24T01:35:17.365Z,7.10
2022-12-24T01:38:21.739Z,9.10
2022-12-24T01:41:45.021Z,9.52
2022-12-24T01:44:53.574Z,15.38
2022-12-24T01:47:58.806Z,10.43
2022-12-24T01:51:15.879Z,8.57
2022-12-24T01:54:33.275Z,5.28
2022-12-24T01:57:52.492Z,17.58
2022-12-24T02:00:57.228Z,7.65
2022-12-24T02:04:06.490Z,13.50
2022-12-24T02:07:11.417Z,17.00
2022-12-24T02:10:16.374Z,8.60
2022-12-24T02:13:22.486Z,13.10
2022-12-24T02:16:58.744Z,5.18
2022-12-24T02:20:26.397Z,6.90
2022-12-24T02:23:57.929Z,14.00
2022-12-24T02:27:34.521Z,13.38
2022-12-24T02:30:46.433Z,6.20
2022-12-24T02:34:06.042Z,53.63
2022-12-24T02:37:28.281Z,13.13
2022-12-24T02:40:40.528Z,11.15
2022-12-24T02:43:49.587Z,9.85
2022-12-24T02:46:55.294Z,10.95
2022-12-24T02:53:10.481Z,6.72
2022-12-24T02:56:38.007Z,10.18
2022-12-24T03:00:09.025Z,8.25
2022-12-24T03:03:33.825Z,9.07
2022-12-24T03:06:53.405Z,7.90
2022-12-24T03:10:00.879Z,5.55
2022-12-24T03:13:19.196Z,5.70
2022-12-24T03:16:28.269Z,6.78
2022-12-24T03:19:34.303Z,9.82
2022-12-24T03:22:40.034Z,10.70
2022-12-24T03:28:51.212Z,10.93
2022-12-24T03:32:02.385Z,8.80
2022-12-24T03:35:08.917Z,7.70
2022-12-24T03:38:13.423Z,9.35
2022-12-24T03:41:17.964Z,8.07
2022-12-24T03:44:22.490Z,9.07
2022-12-24T03:47:26.995Z,8.25
2022-12-24T03:50:31.627Z,12.10
2022-12-24T03:53:36.079Z,13.82
2022-12-24T03:56:40.402Z,10.38
2022-12-24T03:59:45.390Z,11.23
2022-12-24T04:02:50.158Z,5.70
2022-12-24T04:06:07.610Z,10.20
2022-12-24T04:09:12.240Z,7.32
2022-12-24T04:12:16.819Z,6.38
2022-12-24T04:15:21.401Z,4.95
2022-12-24T04:18:26.290Z,9.32
2022-12-24T04:21:30.800Z,5.60
2022-12-24T04:24:35.550Z,5.93
2022-12-24T04:27:39.983Z,9.60
2022-12-24T04:30:45.010Z,6.30
2022-12-24T04:33:52.111Z,6.38
2022-12-24T04:36:56.687Z,10.20
2022-12-24T04:40:01.216Z,4.32
2022-12-24T04:46:20.916Z,7.05
2022-12-24T04:49:25.373Z,12.57
2022-12-24T04:52:30.139Z,20.02
2022-12-24T04:55:34.795Z,15.50
2022-12-24T04:58:39.655Z,47.53
2022-12-24T05:01:44.071Z,7.10
2022-12-24T05:04:48.839Z,30.63
2022-12-24T05:07:53.518Z,16.63
2022-12-24T05:11:02.314Z,13.50
2022-12-24T05:14:06.863Z,13.27
2022-12-24T05:17:11.707Z,8.23
2022-12-24T05:20:16.840Z,7.83
2022-12-24T05:23:42.644Z,16.50
2022-12-24T05:26:54.380Z,9.15
2022-12-24T05:29:59.020Z,11.70
2022-12-24T05:33:03.519Z,8.10
2022-12-24T05:36:08.771Z,16.73
2022-12-24T05:39:17.943Z,10.43
2022-12-24T05:42:22.441Z,12.93
2022-12-24T05:45:27.122Z,10.68
2022-12-24T05:48:31.986Z,7.53
2022-12-24T05:51:36.585Z,8.83
2022-12-24T05:54:41.210Z,11.30
2022-12-24T05:57:47.123Z,22.95
2022-12-24T06:00:55.427Z,6.65
2022-12-24T06:04:00.145Z,13.75
2022-12-24T06:07:04.586Z,19.52
2022-12-24T06:10:10.575Z,8.80
2022-12-24T06:13:16.410Z,10.32
2022-12-24T06:16:22.657Z,18.48
2022-12-24T06:19:27.525Z,11.73
2022-12-24T06:22:32.274Z,8.90
2022-12-24T06:25:36.590Z,9.43
2022-12-24T06:28:41.116Z,10.20
2022-12-24T06:31:45.980Z,19.52
2022-12-24T06:34:50.866Z,27.20
2022-12-24T06:37:55.575Z,35.43
2022-12-24T06:41:00.508Z,10.23
2022-12-24T06:44:05.285Z,10.75
2022-12-24T06:47:09.896Z,14.73
2022-12-24T06:50:14.835Z,18.00
2022-12-24T06:53:19.311Z,14.70
2022-12-24T06:56:23.963Z,10.65
2022-12-24T06:59:28.464Z,9.43
2022-12-24T07:02:33.188Z,7.47
2022-12-24T07:05:37.882Z,7.90
2022-12-24T07:08:42.371Z,12.68
2022-12-24T07:11:47.067Z,21.30
2022-12-24T07:14:51.678Z,25.27
2022-12-24T07:17:56.392Z,38.75
2022-12-24T07:21:02.147Z,12.65
2022-12-24T07:27:11.141Z,17.52
2022-12-24T07:30:16.568Z,16.55
2022-12-24T07:33:21.259Z,37.15
2022-12-24T07:36:25.783Z,38.78
2022-12-24T07:39:30.783Z,13.57
2022-12-24T07:42:35.807Z,15.02
2022-12-24T07:45:41.309Z,12.98
2022-12-24T07:48:46.172Z,8.50
2022-12-24T07:51:50.730Z,19.50
2022-12-24T07:54:55.427Z,26.02
2022-12-24T07:58:00.128Z,21.40
2022-12-24T08:01:04.713Z,29.63
2022-12-24T08:04:09.630Z,23.90
2022-12-24T08:07:14.298Z,27.70
2022-12-24T08:10:19.053Z,28.23
2022-12-24T08:13:23.630Z,28.95
2022-12-24T08:16:28.283Z,27.52
2022-12-24T08:19:32.814Z,41.72
2022-12-24T08:22:38.960Z,53.78
2022-12-24T08:25:48.267Z,176.80
2022-12-24T08:28:52.870Z,73.47
2022-12-24T08:31:57.757Z,143.67
2022-12-24T08:35:02.107Z,150.88
2022-12-24T08:38:07.192Z,107.50
2022-12-24T08:41:11.864Z,41.92
2022-12-24T08:44:16.367Z,126.30
2022-12-24T08:47:20.863Z,99.65
2022-12-24T08:50:25.841Z,98.07
2022-12-24T08:53:30.297Z,125.63
2022-12-24T08:56:35.444Z,37.55
2022-12-24T08:59:39.834Z,21.55
2022-12-24T09:02:44.485Z,32.65
2022-12-24T09:05:49.401Z,21.67
2022-12-24T09:08:53.841Z,20.43
2022-12-24T09:11:58.653Z,23.75
2022-12-24T09:15:04.567Z,23.30
2022-12-24T09:18:09.315Z,52.03
2022-12-24T09:21:16.341Z,78.15
2022-12-24T09:24:20.899Z,45.65
2022-12-24T09:27:25.417Z,31.83
2022-12-24T09:30:29.737Z,50.70
2022-12-24T09:33:37.664Z,25.67
2022-12-24T09:36:42.108Z,26.85
2022-12-24T09:39:46.638Z,27.25
2022-12-24T09:42:55.172Z,43.58
2022-12-24T09:46:24.303Z,54.72
2022-12-24T09:49:40.129Z,27.27
2022-12-24T09:52:47.775Z,29.60
2022-12-24T09:55:57.742Z,24.90
2022-12-24T09:59:05.318Z,15.15
2022-12-24T10:02:16.579Z,14.10
2022-12-24T10:05:43.892Z,19.50
2022-12-24T10:09:07.368Z,26.75
2022-12-24T10:12:28.727Z,25.00
2022-12-24T10:15:47.949Z,30.75
2022-12-24T10:19:04.400Z,68.05
2022-12-24T10:22:36.228Z,124.25
2022-12-24T10:25:59.605Z,178.57
2022-12-24T10:29:26.276Z,51.20
2022-12-24T10:32:34.095Z,24.67
2022-12-24T10:35:47.645Z,17.55
2022-12-24T10:38:52.607Z,27.85
2022-12-24T10:42:00.817Z,35.53
2022-12-24T10:45:08.724Z,87.00
2022-12-24T10:48:26.706Z,43.97
2022-12-24T10:55:22.125Z,39.33
2022-12-24T10:58:26.782Z,16.45
2022-12-24T11:01:48.986Z,12.77
2022-12-24T11:04:54.369Z,13.32
2022-12-24T11:08:19.253Z,19.40
2022-12-24T11:11:24.451Z,18.10
2022-12-24T11:14:37.655Z,16.50
2022-12-24T11:17:42.545Z,37.75
2022-12-24T11:20:53.532Z,13.53
2022-12-24T11:24:26.080Z,13.98
2022-12-24T11:27:51.470Z,74.68
2022-12-24T11:31:03.847Z,19.35
2022-12-24T11:34:23.370Z,13.30
2022-12-24T11:37:27.771Z,15.07
2022-12-24T11:40:38.128Z,13.90
2022-12-24T11:43:49.621Z,12.05
2022-12-24T11:46:57.827Z,10.35
2022-12-24T11:50:21.200Z,10.45
2022-12-24T11:53:47.834Z,9.95
2022-12-24T11:56:56.317Z,8.48
2022-12-24T12:00:00.797Z,8.10
2022-12-24T12:03:30.194Z,13.63
2022-12-24T12:06:56.331Z,8.93
2022-12-24T12:10:20.651Z,8.05
2022-12-24T12:13:33.977Z,10.25
2022-12-24T12:17:07.602Z,9.10
2022-12-24T12:20:25.009Z,8.38
2022-12-24T12:23:37.465Z,8.73
2022-12-24T12:26:44.160Z,8.60
2022-12-24T12:29:58.611Z,10.38
2022-12-24T12:33:27.143Z,5.93
2022-12-24T12:36:42.339Z,8.98
2022-12-24T12:39:47.110Z,7.70
2022-12-24T12:43:23.466Z,11.33
2022-12-24T12:46:52.308Z,10.38
2022-12-24T12:50:12.841Z,9.73
2022-12-24T12:53:28.814Z,10.68
2022-12-24T12:56:38.306Z,10.20
2022-12-24T12:59:58.555Z,10.00
2022-12-24T13:03:27.471Z,7.80
2022-12-24T13:06:59.373Z,10.98
2022-12-24T13:10:24.112Z,9.52
2022-12-24T13:13:46.879Z,14.18
2022-12-24T13:17:30.386Z,8.90
2022-12-24T13:20:38.160Z,8.10
2022-12-24T13:23:43.208Z,7.80
2022-12-24T13:27:08.139Z,8.10
2022-12-24T13:30:36.906Z,7.15
2022-12-24T13:33:41.288Z,6.97
2022-12-24T13:37:06.992Z,7.90
2022-12-24T13:40:11.461Z,7.97
2022-12-24T13:43:16.519Z,21.13
2022-12-24T13:46:50.201Z,9.02
2022-12-24T13:49:55.365Z,25.98
2022-12-24T13:52:59.964Z,18.33
2022-12-24T13:56:21.728Z,8.75
2022-12-24T13:59:39.385Z,18.33
2022-12-24T14:03:14.374Z,11.18
2022-12-24T14:06:26.412Z,8.07
2022-12-24T14:09:34.043Z,9.80
2022-12-24T14:12:51.620Z,9.77
2022-12-24T14:15:59.298Z,11.40
2022-12-24T14:19:14.941Z,7.60
2022-12-24T14:22:28.129Z,11.00
2022-12-24T14:25:33.359Z,8.43
2022-12-24T14:28:44.610Z,8.27
2022-12-24T14:31:55.555Z,8.32
2022-12-24T14:35:15.213Z,10.25
2022-12-24T14:38:22.109Z,7.93
2022-12-24T14:41:44.256Z,9.88
2022-12-24T14:44:57.401Z,8.82
2022-12-24T14:48:18.989Z,11.88
2022-12-24T14:51:29.324Z,10.85
2022-12-24T14:54:42.958Z,11.98
2022-12-24T14:57:47.532Z,15.52
2022-12-24T15:00:54.802Z,12.75
2022-12-24T15:04:04.105Z,9.65
2022-12-24T15:07:10.085Z,12.27
2022-12-24T15:10:35.845Z,11.13
2022-12-24T15:13:43.225Z,18.95
2022-12-24T15:17:08.464Z,14.77
2022-12-24T15:20:23.063Z,12.70
2022-12-24T15:23:34.438Z,18.42
2022-12-24T15:26:39.905Z,19.77
2022-12-24T15:29:47.509Z,17.92
2022-12-24T15:32:54.088Z,18.02
2022-12-24T15:35:58.857Z,15.10
2022-12-24T15:39:09.661Z,10.77
2022-12-24T15:42:20.833Z,18.02
2022-12-24T15:45:30.864Z,11.35
2022-12-24T15:48:37.238Z,17.08
2022-12-24T15:51:42.088Z,13.50
2022-12-24T15:54:55.684Z,31.25
2022-12-24T15:58:03.277Z,13.82
2022-12-24T16:04:29.187Z,12.30
2022-12-24T16:07:53.522Z,16.42
2022-12-24T16:11:07.615Z,14.20
2022-12-24T16:14:21.133Z,13.10
2022-12-24T16:17:34.087Z,12.82
2022-12-24T16:20:38.838Z,16.60
2022-12-24T16:23:54.700Z,12.57
2022-12-24T16:26:59.467Z,13.45
2022-12-24T16:30:04.078Z,10.35
2022-12-24T16:33:16.206Z,11.00
2022-12-24T16:36:20.624Z,14.98
2022-12-24T16:39:32.647Z,13.23
2022-12-24T16:42:55.374Z,10.35
2022-12-24T16:46:06.514Z,9.10
2022-12-24T16:49:22.305Z,15.25
2022-12-24T16:52:29.764Z,16.25
2022-12-24T16:55:34.521Z,15.45
2022-12-24T16:58:39.114Z,17.17
2022-12-24T17:01:43.949Z,27.83
2022-12-24T17:04:50.455Z,20.83
2022-12-24T17:07:54.773Z,26.63
2022-12-24T17:10:59.304Z,15.25
2022-12-24T17:14:08.473Z,14.98
2022-12-24T17:17:34.040Z,13.18
2022-12-24T17:20:38.724Z,12.57
2022-12-24T17:23:43.536Z,16.90
2022-12-24T17:26:48.236Z,17.67
2022-12-24T17:29:53.054Z,15.40
2022-12-24T17:32:57.568Z,11.30
2022-12-24T17:36:02.021Z,10.85
2022-12-24T17:39:06.674Z,9.13
2022-12-24T17:42:11.340Z,13.87
2022-12-24T17:45:16.007Z,13.20
2022-12-24T17:48:20.526Z,13.23
2022-12-24T17:51:25.322Z,14.52
2022-12-24T17:54:29.966Z,13.82
2022-12-24T17:57:34.537Z,12.63
2022-12-24T18:00:39.588Z,13.52
2022-12-24T18:03:44.517Z,12.77
2022-12-24T18:06:49.846Z,15.52
2022-12-24T18:12:58.907Z,16.73
2022-12-24T18:16:03.514Z,17.87
2022-12-24T18:19:11.279Z,12.05
2022-12-24T18:22:15.858Z,18.77
2022-12-24T18:25:21.246Z,15.68
2022-12-24T18:31:30.625Z,8.23
2022-12-24T18:34:35.272Z,11.13
2022-12-24T18:37:39.763Z,10.67
2022-12-24T18:40:44.162Z,10.40
2022-12-24T18:43:49.353Z,11.27
2022-12-24T18:46:55.472Z,17.80
2022-12-24T18:49:59.928Z,15.10
2022-12-24T18:53:05.121Z,6.32
2022-12-24T18:56:16.674Z,8.43
2022-12-24T18:59:22.192Z,11.45
2022-12-24T19:02:26.835Z,10.63
2022-12-24T19:05:32.764Z,10.68
2022-12-24T19:12:02.760Z,10.40
2022-12-24T19:15:08.139Z,11.18
2022-12-24T19:18:12.923Z,10.40
2022-12-24T19:21:18.921Z,28.33
2022-12-24T19:24:24.859Z,23.98
2022-12-24T19:27:29.613Z,27.83
2022-12-24T19:30:34.169Z,50.97
2022-12-24T19:33:53.599Z,53.03
2022-12-24T19:36:58.285Z,53.30
2022-12-24T19:40:02.822Z,30.13
2022-12-24T19:43:07.594Z,15.37
2022-12-24T19:46:15.261Z,55.53
2022-12-24T19:49:20.635Z,73.78
2022-12-24T19:52:25.365Z,50.33
2022-12-24T19:55:29.930Z,111.50
2022-12-24T19:58:34.539Z,42.93
2022-12-24T20:01:39.146Z,40.40
2022-12-24T20:04:43.966Z,25.40
2022-12-24T20:07:48.608Z,21.50
2022-12-24T20:10:53.513Z,35.90
2022-12-24T20:14:02.872Z,10.32
2022-12-24T20:17:07.420Z,10.13
2022-12-24T20:20:12.403Z,8.60
2022-12-24T20:23:16.881Z,9.93
2022-12-24T20:26:24.621Z,12.25
2022-12-24T20:29:29.373Z,12.95
2022-12-24T20:32:33.921Z,11.00
2022-12-24T20:35:38.560Z,11.63
2022-12-24T20:38:44.325Z,10.63
2022-12-24T20:44:53.135Z,17.92
2022-12-24T20:47:58.168Z,16.65
2022-12-24T20:51:11.232Z,12.55
2022-12-24T20:54:16.587Z,12.05
2022-12-24T20:57:25.905Z,8.00
2022-12-24T21:00:33.765Z,8.25
2022-12-24T21:03:38.498Z,10.97
2022-12-24T21:06:43.133Z,15.50
2022-12-24T21:09:47.819Z,14.02
2022-12-24T21:12:59.818Z,15.93
2022-12-24T21:16:04.332Z,15.45
2022-12-24T21:19:11.029Z,10.57
2022-12-24T21:22:15.584Z,7.70
2022-12-24T21:25:20.304Z,8.90
2022-12-24T21:28:24.888Z,10.40
2022-12-24T21:31:29.690Z,8.35
2022-12-24T21:34:34.424Z,14.63
2022-12-24T21:37:39.566Z,9.10
2022-12-24T21:40:44.557Z,9.27
2022-12-24T21:43:49.435Z,9.38
2022-12-24T21:46:54.044Z,14.93
2022-12-24T21:50:16.998Z,11.07
2022-12-24T21:53:39.732Z,8.85
2022-12-24T21:57:03.020Z,11.15
2022-12-24T22:00:25.028Z,11.07
2022-12-24T22:03:29.857Z,8.18
2022-12-24T22:06:52.843Z,9.50
2022-12-24T22:10:15.491Z,12.70
2022-12-24T22:13:20.251Z,7.20
2022-12-24T22:16:24.937Z,15.23
2022-12-24T22:19:29.973Z,20.75
2022-12-24T22:22:34.623Z,16.65
2022-12-24T22:25:39.639Z,20.70
2022-12-24T22:28:44.640Z,13.68
2022-12-24T22:31:49.410Z,13.70
2022-12-24T22:34:54.632Z,10.27
2022-12-24T22:38:00.320Z,11.82
2022-12-24T22:41:10.387Z,10.50
2022-12-24T22:44:15.092Z,10.95
2022-12-24T22:47:19.866Z,7.97
2022-12-24T22:50:25.051Z,10.35
2022-12-24T22:53:29.599Z,9.20
2022-12-24T22:56:40.479Z,8.77
2022-12-24T22:59:45.886Z,8.35
2022-12-24T23:02:50.450Z,11.50
2022-12-24T23:06:03.328Z,8.83
2022-12-24T23:09:10.807Z,8.13
2022-12-24T23:12:35.272Z,9.40
2022-12-24T23:15:40.753Z,10.77
2022-12-24T23:21:49.335Z,10.15
2022-12-24T23:24:54.032Z,9.27
2022-12-24T23:27:58.800Z,8.03
2022-12-24T23:31:03.581Z,13.40
2022-12-24T23:34:08.567Z,9.55
2022-12-24T23:37:13.112Z,7.65
2022-12-24T23:40:17.879Z,13.75
2022-12-24T23:43:22.586Z,10.00
2022-12-24T23:46:27.464Z,8.23
2022-12-24T23:49:32.138Z,10.48
2022-12-24T23:52:37.597Z,7.43
2022-12-24T23:55:42.265Z,8.60
2022-12-24T23:58:46.924Z,7.03
